sensor_id;sensor_type;location;lat;lon;timestamp;pressure;altitude;pressure_sealevel;temperature;humidity
60832;BME280;46665;51.558;-0.448;2023-04-19T00:00:28;102093.91;;;9.07;100.00
60832;BME280;46665;51.558;-0.448;2023-04-19T00:02:56;102102.88;;;9.08;100.00
60832;BME280;46665;51.558;-0.448;2023-04-19T00:05:21;102083.75;;;9.03;100.00
60832;BME280;46665;51.558;-0.448;2023-04-19T00:07:49;102094.00;;;9.01;100.00
60832;BME280;46665;51.558;-0.448;2023-04-19T00:10:14;102086.81;;;8.95;100.00
60832;BME280;46665;51.558;-0.448;2023-04-19T00:12:40;102086.00;;;8.94;100.00
60832;BME280;46665;51.558;-0.448;2023-04-19T00:15:05;102083.97;;;8.89;100.00
60832;BME280;46665;51.558;-0.448;2023-04-19T00:17:33;102084.47;;;8.86;100.00
60832;BME280;46665;51.558;-0.448;2023-04-19T00:19:58;102087.63;;;8.83;100.00
60832;BME280;46665;51.558;-0.448;2023-04-19T00:22:24;102085.63;;;8.79;100.00
60832;BME280;46665;51.558;-0.448;2023-04-19T00:24:50;102081.13;;;8.73;100.00
60832;BME280;46665;51.558;-0.448;2023-04-19T00:27:15;102075.09;;;8.71;100.00
60832;BME280;46665;51.558;-0.448;2023-04-19T00:29:41;102080.16;;;8.67;100.00
60832;BME280;46665;51.558;-0.448;2023-04-19T00:32:06;102067.06;;;8.64;100.00
60832;BME280;46665;51.558;-0.448;2023-04-19T00:34:32;102064.59;;;8.62;100.00
60832;BME280;46665;51.558;-0.448;2023-04-19T00:36:58;102056.09;;;8.59;100.00
60832;BME280;46665;51.558;-0.448;2023-04-19T00:39:23;102069.06;;;8.57;100.00
60832;BME280;46665;51.558;-0.448;2023-04-19T00:41:49;102061.97;;;8.56;100.00
60832;BME280;46665;51.558;-0.448;2023-04-19T00:44:14;102062.44;;;8.53;100.00
60832;BME280;46665;51.558;-0.448;2023-04-19T00:46:40;102067.50;;;8.49;100.00
60832;BME280;46665;51.558;-0.448;2023-04-19T00:49:06;102059.59;;;8.48;100.00
60832;BME280;46665;51.558;-0.448;2023-04-19T00:51:32;102060.88;;;8.45;100.00
60832;BME280;46665;51.558;-0.448;2023-04-19T00:53:58;102055.94;;;8.42;100.00
60832;BME280;46665;51.558;-0.448;2023-04-19T00:56:25;102054.28;;;8.41;100.00
60832;BME280;46665;51.558;-0.448;2023-04-19T00:58:52;102056.16;;;8.40;100.00
60832;BME280;46665;51.558;-0.448;2023-04-19T01:01:18;102052.22;;;8.36;100.00
60832;BME280;46665;51.558;-0.448;2023-04-19T01:03:45;102048.91;;;8.34;100.00
60832;BME280;46665;51.558;-0.448;2023-04-19T01:06:10;102052.44;;;8.35;100.00
60832;BME280;46665;51.558;-0.448;2023-04-19T01:08:36;102042.69;;;8.34;100.00
60832;BME280;46665;51.558;-0.448;2023-04-19T01:11:01;102041.00;;;8.33;100.00
60832;BME280;46665;51.558;-0.448;2023-04-19T01:13:27;102046.69;;;8.31;100.00
60832;BME280;46665;51.558;-0.448;2023-04-19T01:15:53;102040.66;;;8.29;100.00
60832;BME280;46665;51.558;-0.448;2023-04-19T01:18:18;102035.69;;;8.26;100.00
60832;BME280;46665;51.558;-0.448;2023-04-19T01:20:44;102040.06;;;8.27;100.00
60832;BME280;46665;51.558;-0.448;2023-04-19T01:23:09;102038.63;;;8.24;100.00
60832;BME280;46665;51.558;-0.448;2023-04-19T01:25:37;102037.81;;;8.24;100.00
60832;BME280;46665;51.558;-0.448;2023-04-19T01:28:03;102038.03;;;8.22;100.00
60832;BME280;46665;51.558;-0.448;2023-04-19T01:30:29;102034.34;;;8.17;100.00
60832;BME280;46665;51.558;-0.448;2023-04-19T01:32:54;102031.66;;;8.17;100.00
60832;BME280;46665;51.558;-0.448;2023-04-19T01:35:19;102027.28;;;8.16;100.00
60832;BME280;46665;51.558;-0.448;2023-04-19T01:37:45;102022.47;;;8.18;100.00
60832;BME280;46665;51.558;-0.448;2023-04-19T01:40:11;102025.06;;;8.13;100.00
60832;BME280;46665;51.558;-0.448;2023-04-19T01:42:36;102022.09;;;8.14;100.00
60832;BME280;46665;51.558;-0.448;2023-04-19T01:45:02;102020.81;;;8.17;100.00
60832;BME280;46665;51.558;-0.448;2023-04-19T01:47:28;102019.97;;;8.16;100.00
60832;BME280;46665;51.558;-0.448;2023-04-19T01:49:53;102026.69;;;8.14;100.00
60832;BME280;46665;51.558;-0.448;2023-04-19T01:52:19;102019.63;;;8.13;100.00
60832;BME280;46665;51.558;-0.448;2023-04-19T01:54:44;102012.31;;;8.13;100.00
60832;BME280;46665;51.558;-0.448;2023-04-19T01:57:09;102010.91;;;8.11;100.00
60832;BME280;46665;51.558;-0.448;2023-04-19T01:59:35;102022.56;;;8.11;100.00
60832;BME280;46665;51.558;-0.448;2023-04-19T02:02:00;102012.78;;;8.10;100.00
60832;BME280;46665;51.558;-0.448;2023-04-19T02:04:26;102016.75;;;8.08;100.00
60832;BME280;46665;51.558;-0.448;2023-04-19T02:06:51;102013.22;;;8.07;100.00
60832;BME280;46665;51.558;-0.448;2023-04-19T02:09:16;102009.69;;;8.07;100.00
60832;BME280;46665;51.558;-0.448;2023-04-19T02:11:42;102005.34;;;8.06;100.00
60832;BME280;46665;51.558;-0.448;2023-04-19T02:14:07;102013.69;;;8.04;100.00
60832;BME280;46665;51.558;-0.448;2023-04-19T02:16:32;102008.88;;;8.06;100.00
60832;BME280;46665;51.558;-0.448;2023-04-19T02:18:58;102008.06;;;8.06;100.00
60832;BME280;46665;51.558;-0.448;2023-04-19T02:21:23;102008.88;;;8.06;100.00
60832;BME280;46665;51.558;-0.448;2023-04-19T02:23:48;102007.44;;;8.03;100.00
60832;BME280;46665;51.558;-0.448;2023-04-19T02:26:14;102006.84;;;8.01;100.00
60832;BME280;46665;51.558;-0.448;2023-04-19T02:28:39;102005.22;;;8.00;100.00
60832;BME280;46665;51.558;-0.448;2023-04-19T02:31:05;102006.25;;;7.99;100.00
60832;BME280;46665;51.558;-0.448;2023-04-19T02:33:31;102000.34;;;8.02;100.00
60832;BME280;46665;51.558;-0.448;2023-04-19T02:35:56;101996.47;;;7.98;100.00
60832;BME280;46665;51.558;-0.448;2023-04-19T02:38:22;102004.34;;;8.00;100.00
60832;BME280;46665;51.558;-0.448;2023-04-19T02:40:47;101993.50;;;8.00;100.00
60832;BME280;46665;51.558;-0.448;2023-04-19T02:43:13;102000.59;;;8.01;100.00
60832;BME280;46665;51.558;-0.448;2023-04-19T02:45:38;101996.47;;;7.98;100.00
60832;BME280;46665;51.558;-0.448;2023-04-19T02:48:04;101999.78;;;8.00;100.00
60832;BME280;46665;51.558;-0.448;2023-04-19T02:50:31;101989.84;;;7.94;100.00
60832;BME280;46665;51.558;-0.448;2023-04-19T02:52:57;101992.81;;;7.93;100.00
60832;BME280;46665;51.558;-0.448;2023-04-19T02:55:22;102000.09;;;7.92;100.00
60832;BME280;46665;51.558;-0.448;2023-04-19T02:57:48;102004.94;;;7.90;100.00
60832;BME280;46665;51.558;-0.448;2023-04-19T03:00:15;101989.09;;;7.87;100.00
60832;BME280;46665;51.558;-0.448;2023-04-19T03:02:42;102004.53;;;7.87;100.00
60832;BME280;46665;51.558;-0.448;2023-04-19T03:05:09;102002.53;;;7.82;100.00
60832;BME280;46665;51.558;-0.448;2023-04-19T03:07:34;101996.75;;;7.78;100.00
60832;BME280;46665;51.558;-0.448;2023-04-19T03:10:00;102003.81;;;7.79;100.00
60832;BME280;46665;51.558;-0.448;2023-04-19T03:12:26;101990.66;;;7.83;100.00
60832;BME280;46665;51.558;-0.448;2023-04-19T03:14:51;101996.06;;;7.83;100.00
60832;BME280;46665;51.558;-0.448;2023-04-19T03:17:16;101988.75;;;7.84;100.00
60832;BME280;46665;51.558;-0.448;2023-04-19T03:19:42;101984.16;;;7.84;100.00
60832;BME280;46665;51.558;-0.448;2023-04-19T03:22:07;101988.97;;;7.82;100.00
60832;BME280;46665;51.558;-0.448;2023-04-19T03:24:32;101982.38;;;7.78;100.00
60832;BME280;46665;51.558;-0.448;2023-04-19T03:26:58;101992.63;;;7.76;100.00
60832;BME280;46665;51.558;-0.448;2023-04-19T03:29:23;101985.09;;;7.78;100.00
60832;BME280;46665;51.558;-0.448;2023-04-19T03:31:49;101994.19;;;7.84;100.00
60832;BME280;46665;51.558;-0.448;2023-04-19T03:34:14;101980.41;;;7.85;100.00
60832;BME280;46665;51.558;-0.448;2023-04-19T03:36:40;101980.63;;;7.84;100.00
60832;BME280;46665;51.558;-0.448;2023-04-19T03:39:05;101978.06;;;7.89;100.00
60832;BME280;46665;51.558;-0.448;2023-04-19T03:41:31;101978.06;;;7.89;100.00
60832;BME280;46665;51.558;-0.448;2023-04-19T03:43:56;101971.13;;;7.93;100.00
60832;BME280;46665;51.558;-0.448;2023-04-19T03:46:22;101984.44;;;7.94;100.00
60832;BME280;46665;51.558;-0.448;2023-04-19T03:48:48;101971.47;;;7.96;100.00
60832;BME280;46665;51.558;-0.448;2023-04-19T03:51:13;101973.97;;;7.98;100.00
60832;BME280;46665;51.558;-0.448;2023-04-19T03:53:40;101978.78;;;7.96;100.00
60832;BME280;46665;51.558;-0.448;2023-04-19T03:56:05;101975.81;;;7.97;100.00
60832;BME280;46665;51.558;-0.448;2023-04-19T03:58:31;101973.13;;;7.97;100.00
60832;BME280;46665;51.558;-0.448;2023-04-19T04:00:58;101976.06;;;7.96;100.00
60832;BME280;46665;51.558;-0.448;2023-04-19T04:03:23;101968.16;;;7.94;100.00
60832;BME280;46665;51.558;-0.448;2023-04-19T04:05:48;101977.84;;;7.90;100.00
60832;BME280;46665;51.558;-0.448;2023-04-19T04:08:14;101969.56;;;7.85;100.00
60832;BME280;46665;51.558;-0.448;2023-04-19T04:10:39;101975.66;;;7.80;100.00
60832;BME280;46665;51.558;-0.448;2023-04-19T04:13:05;101971.28;;;7.79;100.00
60832;BME280;46665;51.558;-0.448;2023-04-19T04:15:30;101964.44;;;7.77;100.00
60832;BME280;46665;51.558;-0.448;2023-04-19T04:17:55;101972.81;;;7.75;100.00
60832;BME280;46665;51.558;-0.448;2023-04-19T04:20:21;101965.50;;;7.76;100.00
60832;BME280;46665;51.558;-0.448;2023-04-19T04:22:46;101968.69;;;7.73;100.00
60832;BME280;46665;51.558;-0.448;2023-04-19T04:25:14;101962.66;;;7.71;100.00
60832;BME280;46665;51.558;-0.448;2023-04-19T04:27:42;101968.91;;;7.71;100.00
60832;BME280;46665;51.558;-0.448;2023-04-19T04:30:10;101963.34;;;7.66;100.00
60832;BME280;46665;51.558;-0.448;2023-04-19T04:32:36;101960.66;;;7.66;100.00
60832;BME280;46665;51.558;-0.448;2023-04-19T04:35:05;101963.34;;;7.66;100.00
60832;BME280;46665;51.558;-0.448;2023-04-19T04:37:32;101959.00;;;7.65;100.00
60832;BME280;46665;51.558;-0.448;2023-04-19T04:40:00;101957.44;;;7.57;100.00
60832;BME280;46665;51.558;-0.448;2023-04-19T04:42:26;101963.28;;;7.54;100.00
60832;BME280;46665;51.558;-0.448;2023-04-19T04:44:52;101960.00;;;7.52;100.00
60832;BME280;46665;51.558;-0.448;2023-04-19T04:47:19;101968.00;;;7.47;100.00
60832;BME280;46665;51.558;-0.448;2023-04-19T04:49:45;101964.69;;;7.45;100.00
60832;BME280;46665;51.558;-0.448;2023-04-19T04:52:10;101975.97;;;7.42;100.00
60832;BME280;46665;51.558;-0.448;2023-04-19T04:54:36;101981.38;;;7.42;100.00
60832;BME280;46665;51.558;-0.448;2023-04-19T04:57:01;101985.59;;;7.38;100.00
60832;BME280;46665;51.558;-0.448;2023-04-19T04:59:27;101989.59;;;7.35;100.00
60832;BME280;46665;51.558;-0.448;2023-04-19T05:01:52;101980.72;;;7.28;100.00
60832;BME280;46665;51.558;-0.448;2023-04-19T05:04:18;101981.78;;;7.27;100.00
60832;BME280;46665;51.558;-0.448;2023-04-19T05:06:43;101985.75;;;7.25;100.00
60832;BME280;46665;51.558;-0.448;2023-04-19T05:09:11;101986.22;;;7.22;100.00
60832;BME280;46665;51.558;-0.448;2023-04-19T05:11:37;101984.53;;;7.21;100.00
60832;BME280;46665;51.558;-0.448;2023-04-19T05:14:02;101989.97;;;7.21;100.00
60832;BME280;46665;51.558;-0.448;2023-04-19T05:16:28;101986.66;;;7.19;100.00
60832;BME280;46665;51.558;-0.448;2023-04-19T05:18:54;101982.91;;;7.20;100.00
60832;BME280;46665;51.558;-0.448;2023-04-19T05:21:20;101985.00;;;7.18;100.00
60832;BME280;46665;51.558;-0.448;2023-04-19T05:23:45;101987.72;;;7.18;100.00
60832;BME280;46665;51.558;-0.448;2023-04-19T05:26:11;101992.06;;;7.19;100.00
60832;BME280;46665;51.558;-0.448;2023-04-19T05:28:39;101993.72;;;7.20;100.00
60832;BME280;46665;51.558;-0.448;2023-04-19T05:31:05;101991.03;;;7.20;100.00
60832;BME280;46665;51.558;-0.448;2023-04-19T05:33:31;101997.88;;;7.22;100.00
60832;BME280;46665;51.558;-0.448;2023-04-19T05:35:56;101997.03;;;7.22;100.00
60832;BME280;46665;51.558;-0.448;2023-04-19T05:38:22;101991.63;;;7.22;100.00
60832;BME280;46665;51.558;-0.448;2023-04-19T05:40:47;101989.28;;;7.25;100.00
60832;BME280;46665;51.558;-0.448;2023-04-19T05:43:13;101989.75;;;7.22;100.00
60832;BME280;46665;51.558;-0.448;2023-04-19T05:45:38;101999.50;;;7.23;100.00
60832;BME280;46665;51.558;-0.448;2023-04-19T05:48:04;102006.13;;;7.27;100.00
60832;BME280;46665;51.558;-0.448;2023-04-19T05:50:30;102000.47;;;7.29;100.00
60832;BME280;46665;51.558;-0.448;2023-04-19T05:52:56;102002.75;;;7.32;100.00
60832;BME280;46665;51.558;-0.448;2023-04-19T05:55:21;102002.75;;;7.32;100.00
60832;BME280;46665;51.558;-0.448;2023-04-19T05:57:47;102003.13;;;7.35;100.00
60832;BME280;46665;51.558;-0.448;2023-04-19T06:00:12;102005.97;;;7.41;100.00
60832;BME280;46665;51.558;-0.448;2023-04-19T06:02:38;102016.34;;;7.44;100.00
60832;BME280;46665;51.558;-0.448;2023-04-19T06:05:03;102018.03;;;7.45;100.00
60832;BME280;46665;51.558;-0.448;2023-04-19T06:07:29;102019.00;;;7.50;100.00
60832;BME280;46665;51.558;-0.448;2023-04-19T06:09:55;102017.47;;;7.54;100.00
60832;BME280;46665;51.558;-0.448;2023-04-19T06:12:21;102021.16;;;7.60;100.00
60832;BME280;46665;51.558;-0.448;2023-04-19T06:14:46;102024.25;;;7.64;100.00
60832;BME280;46665;51.558;-0.448;2023-04-19T06:17:11;102018.34;;;7.67;100.00
60832;BME280;46665;51.558;-0.448;2023-04-19T06:19:38;102015.22;;;7.70;100.00
60832;BME280;46665;51.558;-0.448;2023-04-19T06:22:03;102019.72;;;7.76;100.00
60832;BME280;46665;51.558;-0.448;2023-04-19T06:24:29;102013.22;;;7.77;100.00
60832;BME280;46665;51.558;-0.448;2023-04-19T06:26:55;102006.31;;;7.81;100.00
60832;BME280;46665;51.558;-0.448;2023-04-19T06:29:21;102010.56;;;7.89;100.00
60832;BME280;46665;51.558;-0.448;2023-04-19T06:31:48;102004.47;;;7.93;100.00
60832;BME280;46665;51.558;-0.448;2023-04-19T06:34:14;101997.16;;;7.94;100.00
60832;BME280;46665;51.558;-0.448;2023-04-19T06:36:39;102011.44;;;8.01;100.00
60832;BME280;46665;51.558;-0.448;2023-04-19T06:39:05;101996.81;;;8.02;100.00
60832;BME280;46665;51.558;-0.448;2023-04-19T06:41:30;102009.47;;;8.08;100.00
60832;BME280;46665;51.558;-0.448;2023-04-19T06:43:55;102003.59;;;8.11;100.00
60832;BME280;46665;51.558;-0.448;2023-04-19T06:46:21;102004.53;;;8.17;100.00
60832;BME280;46665;51.558;-0.448;2023-04-19T06:48:46;102006.22;;;8.18;100.00
60832;BME280;46665;51.558;-0.448;2023-04-19T06:51:12;102010.91;;;8.22;100.00
60832;BME280;46665;51.558;-0.448;2023-04-19T06:53:37;102010.22;;;8.27;100.00
60832;BME280;46665;51.558;-0.448;2023-04-19T06:56:03;102009.53;;;8.32;100.00
60832;BME280;46665;51.558;-0.448;2023-04-19T06:58:29;102004.22;;;8.37;100.00
60832;BME280;46665;51.558;-0.448;2023-04-19T07:00:56;102009.81;;;8.42;100.00
60832;BME280;46665;51.558;-0.448;2023-04-19T07:03:23;102019.28;;;8.51;100.00
60832;BME280;46665;51.558;-0.448;2023-04-19T07:05:49;102009.59;;;8.55;100.00
60832;BME280;46665;51.558;-0.448;2023-04-19T07:08:16;102016.44;;;8.58;100.00
60832;BME280;46665;51.558;-0.448;2023-04-19T07:10:42;102026.84;;;8.61;100.00
60832;BME280;46665;51.558;-0.448;2023-04-19T07:13:10;102019.88;;;8.65;100.00
60832;BME280;46665;51.558;-0.448;2023-04-19T07:15:35;102018.69;;;8.73;100.00
60832;BME280;46665;51.558;-0.448;2023-04-19T07:18:01;102028.03;;;8.77;100.00
60832;BME280;46665;51.558;-0.448;2023-04-19T07:20:26;102029.78;;;8.83;100.00
60832;BME280;46665;51.558;-0.448;2023-04-19T07:22:51;102024.47;;;8.88;100.00
60832;BME280;46665;51.558;-0.448;2023-04-19T07:25:17;102035.22;;;8.95;100.00
60832;BME280;46665;51.558;-0.448;2023-04-19T07:27:43;102029.91;;;9.00;100.00
60832;BME280;46665;51.558;-0.448;2023-04-19T07:30:08;102035.69;;;9.03;100.00
60832;BME280;46665;51.558;-0.448;2023-04-19T07:32:34;102032.38;;;9.13;100.00
60832;BME280;46665;51.558;-0.448;2023-04-19T07:35:00;102034.50;;;9.23;100.00
60832;BME280;46665;51.558;-0.448;2023-04-19T07:37:25;102033.81;;;9.27;100.00
60832;BME280;46665;51.558;-0.448;2023-04-19T07:39:51;102036.97;;;9.36;100.00
60832;BME280;46665;51.558;-0.448;2023-04-19T07:42:16;102040.16;;;9.45;100.00
60832;BME280;46665;51.558;-0.448;2023-04-19T07:44:41;102039.19;;;9.51;100.00
60832;BME280;46665;51.558;-0.448;2023-04-19T07:47:07;102043.41;;;9.59;100.00
60832;BME280;46665;51.558;-0.448;2023-04-19T07:49:32;102039.50;;;9.66;100.00
60832;BME280;46665;51.558;-0.448;2023-04-19T07:52:01;102053.28;;;9.76;100.00
60832;BME280;46665;51.558;-0.448;2023-04-19T07:54:27;102049.84;;;9.81;100.00
60832;BME280;46665;51.558;-0.448;2023-04-19T07:56:53;102050.19;;;9.85;100.00
60832;BME280;46665;51.558;-0.448;2023-04-19T07:59:18;102040.81;;;9.92;100.00
60832;BME280;46665;51.558;-0.448;2023-04-19T08:01:49;102043.88;;;9.96;100.00
60832;BME280;46665;51.558;-0.448;2023-04-19T08:04:14;102051.41;;;10.06;100.00
60832;BME280;46665;51.558;-0.448;2023-04-19T08:06:42;102037.34;;;10.09;100.00
60832;BME280;46665;51.558;-0.448;2023-04-19T08:09:07;102051.25;;;10.12;100.00
60832;BME280;46665;51.558;-0.448;2023-04-19T08:11:33;102048.22;;;10.09;100.00
60832;BME280;46665;51.558;-0.448;2023-04-19T08:13:58;102043.25;;;10.06;100.00
60832;BME280;46665;51.558;-0.448;2023-04-19T08:16:23;102038.41;;;10.08;100.00
60832;BME280;46665;51.558;-0.448;2023-04-19T08:18:49;102057.88;;;10.16;100.00
60832;BME280;46665;51.558;-0.448;2023-04-19T08:21:16;102046.16;;;10.16;100.00
60832;BME280;46665;51.558;-0.448;2023-04-19T08:23:42;102055.84;;;10.24;100.00
60832;BME280;46665;51.558;-0.448;2023-04-19T08:26:07;102061.13;;;10.30;100.00
60832;BME280;46665;51.558;-0.448;2023-04-19T08:28:32;102070.56;;;10.39;100.00
60832;BME280;46665;51.558;-0.448;2023-04-19T08:30:58;102072.56;;;10.44;100.00
60832;BME280;46665;51.558;-0.448;2023-04-19T08:33:23;102067.09;;;10.44;100.00
60832;BME280;46665;51.558;-0.448;2023-04-19T08:35:49;102070.16;;;10.48;100.00
60832;BME280;46665;51.558;-0.448;2023-04-19T08:38:14;102066.13;;;10.50;100.00
60832;BME280;46665;51.558;-0.448;2023-04-19T08:40:51;102075.44;;;10.54;100.00
60832;BME280;46665;51.558;-0.448;2023-04-19T08:43:18;102071.41;;;10.57;100.00
60832;BME280;46665;51.558;-0.448;2023-04-19T08:45:48;102067.38;;;10.59;100.00
60832;BME280;46665;51.558;-0.448;2023-04-19T08:48:15;102073.50;;;10.67;100.00
60832;BME280;46665;51.558;-0.448;2023-04-19T08:50:41;102082.22;;;10.69;100.00
60832;BME280;46665;51.558;-0.448;2023-04-19T08:53:08;102075.22;;;10.73;100.00
60832;BME280;46665;51.558;-0.448;2023-04-19T08:55:34;102074.97;;;10.74;100.00
60832;BME280;46665;51.558;-0.448;2023-04-19T08:58:03;102065.72;;;10.75;100.00
60832;BME280;46665;51.558;-0.448;2023-04-19T09:00:29;102066.88;;;10.79;100.00
60832;BME280;46665;51.558;-0.448;2023-04-19T09:02:55;102058.22;;;10.82;100.00
60832;BME280;46665;51.558;-0.448;2023-04-19T09:05:20;102061.75;;;10.83;100.00
60832;BME280;46665;51.558;-0.448;2023-04-19T09:07:46;102068.03;;;10.83;100.00
60832;BME280;46665;51.558;-0.448;2023-04-19T09:10:16;102064.47;;;10.83;100.00
60832;BME280;46665;51.558;-0.448;2023-04-19T09:12:42;102062.41;;;10.90;100.00
60832;BME280;46665;51.558;-0.448;2023-04-19T09:15:09;102069.25;;;10.93;100.00
60832;BME280;46665;51.558;-0.448;2023-04-19T09:17:39;102066.78;;;10.91;100.00
60832;BME280;46665;51.558;-0.448;2023-04-19T09:20:05;102060.59;;;10.96;100.00
60832;BME280;46665;51.558;-0.448;2023-04-19T09:22:32;102067.78;;;11.02;100.00
60832;BME280;46665;51.558;-0.448;2023-04-19T09:24:58;102075.22;;;11.06;100.00
60832;BME280;46665;51.558;-0.448;2023-04-19T09:27:31;102061.09;;;11.10;100.00
60832;BME280;46665;51.558;-0.448;2023-04-19T09:29:59;102065.97;;;11.07;100.00
60832;BME280;46665;51.558;-0.448;2023-04-19T09:32:26;102064.31;;;11.06;100.00
60832;BME280;46665;51.558;-0.448;2023-04-19T09:34:57;102062.06;;;11.03;100.00
60832;BME280;46665;51.558;-0.448;2023-04-19T09:37:23;102061.00;;;11.04;100.00
60832;BME280;46665;51.558;-0.448;2023-04-19T09:39:49;102062.91;;;11.04;100.00
60832;BME280;46665;51.558;-0.448;2023-04-19T09:42:15;102072.72;;;11.05;100.00
60832;BME280;46665;51.558;-0.448;2023-04-19T09:44:55;102064.31;;;11.06;100.00
60832;BME280;46665;51.558;-0.448;2023-04-19T09:47:25;102066.53;;;11.10;100.00
60832;BME280;46665;51.558;-0.448;2023-04-19T09:50:23;102070.16;;;11.15;100.00
60832;BME280;46665;51.558;-0.448;2023-04-19T09:52:49;102067.25;;;11.22;100.00
60832;BME280;46665;51.558;-0.448;2023-04-19T09:55:17;102068.72;;;11.30;100.00
60832;BME280;46665;51.558;-0.448;2023-04-19T09:57:43;102061.44;;;11.35;100.00
60832;BME280;46665;51.558;-0.448;2023-04-19T10:00:09;102066.38;;;11.38;100.00
60832;BME280;46665;51.558;-0.448;2023-04-19T10:02:39;102059.59;;;11.41;99.50
60832;BME280;46665;51.558;-0.448;2023-04-19T10:05:07;102052.00;;;11.43;99.17
60832;BME280;46665;51.558;-0.448;2023-04-19T10:07:35;102054.28;;;11.51;99.37
60832;BME280;46665;51.558;-0.448;2023-04-19T10:10:01;102044.28;;;11.57;98.28
60832;BME280;46665;51.558;-0.448;2023-04-19T10:12:28;102051.44;;;11.63;98.39
60832;BME280;46665;51.558;-0.448;2023-04-19T10:14:55;102049.38;;;11.70;97.93
60832;BME280;46665;51.558;-0.448;2023-04-19T10:17:25;102044.28;;;11.79;97.28
60832;BME280;46665;51.558;-0.448;2023-04-19T10:19:55;102038.88;;;11.84;96.50
60832;BME280;46665;51.558;-0.448;2023-04-19T10:22:23;102044.91;;;11.86;96.33
60832;BME280;46665;51.558;-0.448;2023-04-19T10:27:37;102020.56;;;12.01;96.33
60832;BME280;46665;51.558;-0.448;2023-04-19T10:30:03;102029.66;;;12.12;96.06
60832;BME280;46665;51.558;-0.448;2023-04-19T10:32:43;102034.09;;;12.18;93.34
60832;BME280;46665;51.558;-0.448;2023-04-19T10:35:19;102029.50;;;12.24;94.31
60832;BME280;46665;51.558;-0.448;2023-04-19T10:38:11;102035.00;;;12.29;92.96
60832;BME280;46665;51.558;-0.448;2023-04-19T10:40:53;102022.19;;;12.29;93.56
60832;BME280;46665;51.558;-0.448;2023-04-19T10:43:21;102026.53;;;12.30;94.40
60832;BME280;46665;51.558;-0.448;2023-04-19T10:45:46;102028.50;;;12.35;94.29
60832;BME280;46665;51.558;-0.448;2023-04-19T10:51:01;102026.66;;;12.41;92.04
60832;BME280;46665;51.558;-0.448;2023-04-19T10:53:53;102025.38;;;12.48;90.57
60832;BME280;46665;51.558;-0.448;2023-04-19T10:56:21;102023.47;;;12.49;89.50
60832;BME280;46665;51.558;-0.448;2023-04-19T11:01:54;102015.09;;;12.66;90.52
60832;BME280;46665;51.558;-0.448;2023-04-19T11:09:24;102010.97;;;13.00;88.15
60832;BME280;46665;51.558;-0.448;2023-04-19T11:11:51;102009.94;;;13.07;86.16
60832;BME280;46665;51.558;-0.448;2023-04-19T11:14:19;102004.16;;;13.03;84.68
60832;BME280;46665;51.558;-0.448;2023-04-19T11:16:45;102014.81;;;12.99;84.72
60832;BME280;46665;51.558;-0.448;2023-04-19T11:19:15;102009.34;;;12.99;84.75
60832;BME280;46665;51.558;-0.448;2023-04-19T11:21:40;102006.34;;;13.06;84.96
60832;BME280;46665;51.558;-0.448;2023-04-19T11:24:07;102009.06;;;13.01;85.14
60832;BME280;46665;51.558;-0.448;2023-04-19T11:26:32;102003.34;;;13.02;85.40
60832;BME280;46665;51.558;-0.448;2023-04-19T11:28:59;102004.97;;;13.04;84.06
60832;BME280;46665;51.558;-0.448;2023-04-19T11:31:24;102010.19;;;13.05;83.49
60832;BME280;46665;51.558;-0.448;2023-04-19T11:33:50;101999.50;;;13.04;82.81
60832;BME280;46665;51.558;-0.448;2023-04-19T11:36:15;102000.06;;;13.06;82.63
60832;BME280;46665;51.558;-0.448;2023-04-19T11:38:46;102004.16;;;13.03;82.41
60832;BME280;46665;51.558;-0.448;2023-04-19T11:41:11;101988.31;;;13.05;82.10
60832;BME280;46665;51.558;-0.448;2023-04-19T11:43:37;101997.09;;;13.07;82.29
60832;BME280;46665;51.558;-0.448;2023-04-19T11:46:07;101984.25;;;13.08;81.03
60832;BME280;46665;51.558;-0.448;2023-04-19T11:48:33;101983.72;;;13.16;81.08
60832;BME280;46665;51.558;-0.448;2023-04-19T11:50:59;101984.94;;;13.30;81.16
60832;BME280;46665;51.558;-0.448;2023-04-19T11:53:26;101978.16;;;13.43;80.27
60832;BME280;46665;51.558;-0.448;2023-04-19T11:55:56;101969.44;;;13.56;81.28
60832;BME280;46665;51.558;-0.448;2023-04-19T11:58:27;101968.66;;;13.66;79.64
60832;BME280;46665;51.558;-0.448;2023-04-19T12:01:13;101971.16;;;13.78;79.31
60832;BME280;46665;51.558;-0.448;2023-04-19T12:06:12;101967.81;;;13.60;77.08
60832;BME280;46665;51.558;-0.448;2023-04-19T12:08:42;101965.06;;;13.55;76.50
60832;BME280;46665;51.558;-0.448;2023-04-19T12:11:07;101963.72;;;13.58;75.43
60832;BME280;46665;51.558;-0.448;2023-04-19T12:13:33;101965.34;;;13.64;76.11
60832;BME280;46665;51.558;-0.448;2023-04-19T12:15:59;101955.78;;;13.61;75.64
60832;BME280;46665;51.558;-0.448;2023-04-19T12:18:25;101955.22;;;13.59;75.47
60832;BME280;46665;51.558;-0.448;2023-04-19T12:20:51;101948.94;;;13.59;76.00
60832;BME280;46665;51.558;-0.448;2023-04-19T12:23:18;101952.50;;;13.64;76.23
60832;BME280;46665;51.558;-0.448;2023-04-19T12:25:45;101952.00;;;13.73;76.84
60832;BME280;46665;51.558;-0.448;2023-04-19T12:28:12;101950.91;;;13.79;74.84
60832;BME280;46665;51.558;-0.448;2023-04-19T12:30:38;101943.00;;;13.87;75.21
60832;BME280;46665;51.558;-0.448;2023-04-19T12:33:05;101935.31;;;13.95;73.97
60832;BME280;46665;51.558;-0.448;2023-04-19T12:35:31;101934.25;;;14.01;73.18
60832;BME280;46665;51.558;-0.448;2023-04-19T12:37:58;101942.16;;;14.07;73.17
60832;BME280;46665;51.558;-0.448;2023-04-19T12:40:25;101937.78;;;14.06;72.61
60832;BME280;46665;51.558;-0.448;2023-04-19T12:42:51;101938.06;;;14.05;71.76
60832;BME280;46665;51.558;-0.448;2023-04-19T12:45:17;101928.78;;;14.16;71.64
60832;BME280;46665;51.558;-0.448;2023-04-19T12:47:44;101940.78;;;14.25;71.63
60832;BME280;46665;51.558;-0.448;2023-04-19T12:50:12;101929.31;;;14.34;70.58